createdAt,value
2019-03-02T00:01:37.043Z,4.80
2019-03-02T00:04:09.638Z,4.70
2019-03-02T00:06:36.956Z,4.70
2019-03-02T00:09:07.586Z,4.70
2019-03-02T00:11:36.715Z,4.70
2019-03-02T00:14:05.780Z,4.70
2019-03-02T00:16:39.735Z,4.70
2019-03-02T00:19:08.711Z,4.70
2019-03-02T00:21:37.624Z,4.70
2019-03-02T00:24:06.675Z,4.70
2019-03-02T00:26:35.875Z,4.70
2019-03-02T00:29:07.749Z,4.70
2019-03-02T00:31:35.850Z,4.70
2019-03-02T00:34:04.902Z,4.70
2019-03-02T00:36:33.957Z,4.70
2019-03-02T00:39:03.972Z,4.60
2019-03-02T00:41:33.064Z,4.60
2019-03-02T00:44:03.745Z,4.60
2019-03-02T00:46:32.949Z,4.60
2019-03-02T00:49:02.076Z,4.60
2019-03-02T00:51:31.235Z,4.60
2019-03-02T00:54:00.378Z,4.60
2019-03-02T00:56:29.546Z,4.60
2019-03-02T00:59:00.596Z,4.60
2019-03-02T01:01:29.573Z,4.60
2019-03-02T01:03:58.735Z,4.60
2019-03-02T01:06:27.827Z,4.50
2019-03-02T01:08:58.017Z,4.50
2019-03-02T01:11:29.474Z,4.40
2019-03-02T01:13:57.940Z,4.40
2019-03-02T01:16:27.147Z,4.40
2019-03-02T01:18:56.301Z,4.30
2019-03-02T01:21:25.500Z,4.30
2019-03-02T01:23:55.940Z,4.30
2019-03-02T01:26:25.136Z,4.30
2019-03-02T01:28:54.216Z,4.20
2019-03-02T01:31:23.328Z,4.20
2019-03-02T01:33:52.473Z,4.20
2019-03-02T01:36:21.577Z,4.20
2019-03-02T01:38:53.901Z,4.20
2019-03-02T01:41:21.574Z,4.20
2019-03-02T01:43:50.680Z,4.10
2019-03-02T01:46:19.682Z,4.20
2019-03-02T01:48:48.780Z,4.10
2019-03-02T01:51:19.680Z,4.10
2019-03-02T01:53:48.695Z,4.10
2019-03-02T01:56:17.927Z,4.10
2019-03-02T01:58:46.950Z,4.10
2019-03-02T02:01:16.020Z,4.10
2019-03-02T02:03:47.071Z,4.10
2019-03-02T02:06:16.228Z,4.10
2019-03-02T02:08:45.390Z,4.10
2019-03-02T02:11:17.965Z,4.10
2019-03-02T02:13:45.568Z,4.10
2019-03-02T02:16:14.855Z,4.10
2019-03-02T02:18:43.947Z,4.10
2019-03-02T02:21:13.094Z,4.10
2019-03-02T02:23:42.181Z,4.10
2019-03-02T02:26:12.473Z,4.10
2019-03-02T02:28:41.732Z,4.10
2019-03-02T02:31:10.801Z,4.10
2019-03-02T02:33:43.195Z,4.20
2019-03-02T02:36:14.017Z,4.20
2019-03-02T02:38:41.599Z,4.20
2019-03-02T02:41:10.714Z,4.20
2019-03-02T02:43:39.799Z,4.20
2019-03-02T02:46:08.951Z,4.20
2019-03-02T02:48:38.132Z,4.20
2019-03-02T02:51:10.327Z,4.20
2019-03-02T02:53:40.232Z,4.20
2019-03-02T02:56:09.180Z,4.20
2019-03-02T02:58:38.310Z,4.20
2019-03-02T03:01:07.403Z,4.30
2019-03-02T03:03:36.625Z,4.30
2019-03-02T03:06:05.846Z,4.30
2019-03-02T03:08:42.923Z,4.30
2019-03-02T03:11:12.335Z,4.40
2019-03-02T03:13:45.593Z,4.30
2019-03-02T03:16:16.645Z,4.30
2019-03-02T03:18:52.256Z,4.40
2019-03-02T03:21:26.910Z,4.30
2019-03-02T03:23:50.560Z,4.30
2019-03-02T03:26:19.626Z,4.30
2019-03-02T03:28:48.744Z,4.30
2019-03-02T03:31:23.017Z,4.30
2019-03-02T03:33:48.593Z,4.30
2019-03-02T03:36:17.760Z,4.30
2019-03-02T03:38:46.861Z,4.30
2019-03-02T03:41:15.957Z,4.30
2019-03-02T03:43:44.959Z,4.30
2019-03-02T03:46:18.122Z,4.30
2019-03-02T03:48:45.008Z,4.30
2019-03-02T03:51:14.213Z,4.30
2019-03-02T03:53:43.360Z,4.30
2019-03-02T03:56:12.846Z,4.30
2019-03-02T03:58:41.939Z,4.30
2019-03-02T04:01:17.316Z,4.30
2019-03-02T04:03:41.947Z,4.30
2019-03-02T04:06:11.065Z,4.30
2019-03-02T04:08:40.217Z,4.20
2019-03-02T04:11:09.333Z,4.20
2019-03-02T04:13:43.976Z,4.20
2019-03-02T04:16:09.263Z,4.20
2019-03-02T04:18:58.086Z,4.20
2019-03-02T04:21:30.383Z,4.20
2019-03-02T04:24:01.388Z,4.20
2019-03-02T04:26:31.346Z,4.20
2019-03-02T04:29:08.984Z,4.20
2019-03-02T04:31:32.585Z,4.20
2019-03-02T04:34:01.761Z,4.20
2019-03-02T04:36:30.834Z,4.20
2019-03-02T04:39:00.113Z,4.20
2019-03-02T04:41:29.283Z,4.20
2019-03-02T04:43:58.493Z,4.20
2019-03-02T04:46:27.590Z,4.20
2019-03-02T04:48:56.714Z,4.20
2019-03-02T04:51:25.832Z,4.20
2019-03-02T04:53:58.080Z,4.20
2019-03-02T04:56:26.649Z,4.20
2019-03-02T04:58:55.956Z,4.20
2019-03-02T05:01:25.167Z,4.20
2019-03-02T05:03:57.189Z,4.20
2019-03-02T05:06:25.626Z,4.20
2019-03-02T05:08:54.907Z,4.20
2019-03-02T05:11:24.100Z,4.20
2019-03-02T05:13:53.403Z,4.20
2019-03-02T05:16:25.448Z,4.20
2019-03-02T05:18:54.739Z,4.20
2019-03-02T05:21:23.983Z,4.20
2019-03-02T05:23:53.227Z,4.20
2019-03-02T05:26:22.701Z,4.20
2019-03-02T05:28:51.767Z,4.20
2019-03-02T05:31:20.872Z,4.20
2019-03-02T05:33:49.761Z,4.20
2019-03-02T05:36:18.787Z,4.20
2019-03-02T05:38:47.772Z,4.20
2019-03-02T05:41:16.868Z,4.20
2019-03-02T05:43:45.956Z,4.30
2019-03-02T05:46:15.153Z,4.20
2019-03-02T05:48:44.370Z,4.30
2019-03-02T05:51:13.611Z,4.30
2019-03-02T05:53:42.624Z,4.30
2019-03-02T05:56:11.889Z,4.30
2019-03-02T05:58:40.951Z,4.30
2019-03-02T06:01:10.011Z,4.30
2019-03-02T06:03:39.188Z,4.30
2019-03-02T06:06:08.276Z,4.30
2019-03-02T06:08:37.319Z,4.30
2019-03-02T06:11:06.835Z,4.30
2019-03-02T06:13:36.209Z,4.30
2019-03-02T06:16:05.377Z,4.30
2019-03-02T06:18:34.467Z,4.30
2019-03-02T06:21:03.646Z,4.30
2019-03-02T06:23:33.013Z,4.30
2019-03-02T06:26:02.087Z,4.30
2019-03-02T06:28:31.336Z,4.30
2019-03-02T06:31:00.443Z,4.30
2019-03-02T06:33:36.633Z,4.20
2019-03-02T06:36:08.745Z,4.20
2019-03-02T06:38:37.147Z,4.20
2019-03-02T06:41:06.204Z,4.30
2019-03-02T06:43:35.341Z,4.30
2019-03-02T06:46:04.400Z,4.30
2019-03-02T06:48:33.518Z,4.30
2019-03-02T06:51:02.698Z,4.30
2019-03-02T06:53:33.962Z,4.30
2019-03-02T06:56:02.662Z,4.30
2019-03-02T06:58:31.823Z,4.30
2019-03-02T07:01:01.018Z,4.30
2019-03-02T07:03:30.262Z,4.30
2019-03-02T07:05:59.334Z,4.30
2019-03-02T07:08:29.427Z,4.30
2019-03-02T07:10:59.169Z,4.30
2019-03-02T07:13:28.255Z,4.30
2019-03-02T07:15:57.454Z,4.30
2019-03-02T07:18:34.372Z,4.30
2019-03-02T07:21:06.327Z,4.30
2019-03-02T07:23:34.385Z,4.30
2019-03-02T07:26:03.620Z,4.30
2019-03-02T07:28:32.834Z,4.30
2019-03-02T07:31:02.097Z,4.30
2019-03-02T07:33:31.348Z,4.30
2019-03-02T07:36:00.387Z,4.30
2019-03-02T07:38:29.605Z,4.30
2019-03-02T07:40:58.877Z,4.40
2019-03-02T07:43:27.962Z,4.40
2019-03-02T07:45:57.067Z,4.40
2019-03-02T07:48:26.249Z,4.40
2019-03-02T07:50:55.515Z,4.50
2019-03-02T07:53:24.870Z,4.50
2019-03-02T07:55:57.412Z,4.60
2019-03-02T07:58:26.708Z,4.60
2019-03-02T08:00:55.857Z,4.70
2019-03-02T08:03:24.970Z,4.70
2019-03-02T08:05:54.171Z,4.70
2019-03-02T08:08:23.498Z,4.80
2019-03-02T08:10:52.607Z,4.80
2019-03-02T08:13:21.847Z,4.80
2019-03-02T08:15:50.903Z,4.80
2019-03-02T08:18:21.673Z,4.90
2019-03-02T08:20:50.771Z,4.90
2019-03-02T08:23:19.954Z,4.90
2019-03-02T08:25:49.056Z,4.90
2019-03-02T08:28:18.463Z,4.90
2019-03-02T08:30:47.640Z,4.90
2019-03-02T08:33:16.947Z,5.00
2019-03-02T08:35:48.180Z,5.00
2019-03-02T08:38:17.065Z,5.10
2019-03-02T08:40:46.292Z,5.20
2019-03-02T08:43:16.480Z,5.30
2019-03-02T08:45:45.785Z,5.40
2019-03-02T08:48:15.220Z,5.50
2019-03-02T08:51:03.555Z,5.50
2019-03-02T08:53:32.903Z,5.60
2019-03-02T08:56:02.183Z,5.70
2019-03-02T08:58:31.352Z,5.70
2019-03-02T09:01:00.471Z,5.70
2019-03-02T09:03:30.316Z,5.70
2019-03-02T09:05:59.477Z,5.70
2019-03-02T09:08:31.552Z,5.80
2019-03-02T09:11:00.685Z,5.90
2019-03-02T09:13:31.047Z,6.00
2019-03-02T09:16:01.514Z,6.20
2019-03-02T09:18:44.443Z,6.40
2019-03-02T09:21:04.133Z,6.50
2019-03-02T09:23:36.135Z,6.70
2019-03-02T09:26:04.475Z,6.90
2019-03-02T09:28:34.595Z,7.00
2019-03-02T09:31:05.810Z,7.10
2019-03-02T09:33:34.895Z,7.20
2019-03-02T09:36:04.023Z,7.10
2019-03-02T09:38:33.086Z,7.20
2019-03-02T09:41:02.168Z,7.30
2019-03-02T09:43:31.256Z,7.20
2019-03-02T09:46:00.305Z,7.30
2019-03-02T09:48:29.513Z,7.30
2019-03-02T09:50:58.654Z,7.40
2019-03-02T09:53:27.794Z,7.50
2019-03-02T09:55:58.272Z,7.70
2019-03-02T09:58:29.679Z,7.80
2019-03-02T10:01:01.183Z,7.90
2019-03-02T10:03:30.012Z,7.90
2019-03-02T10:05:59.325Z,7.90
2019-03-02T10:08:28.425Z,7.90
2019-03-02T10:10:57.499Z,7.90
2019-03-02T10:13:26.601Z,7.90
2019-03-02T10:15:55.759Z,8.00
2019-03-02T10:18:24.880Z,8.10
2019-03-02T10:20:55.482Z,8.20
2019-03-02T10:23:24.633Z,8.20
2019-03-02T10:25:53.768Z,8.30
2019-03-02T10:28:22.991Z,8.30
2019-03-02T10:30:52.343Z,8.20
2019-03-02T10:33:21.459Z,8.20
2019-03-02T10:35:53.285Z,8.20
2019-03-02T10:38:21.329Z,8.20
2019-03-02T10:40:50.478Z,8.20
2019-03-02T10:43:19.551Z,8.20
2019-03-02T10:45:48.794Z,8.20
2019-03-02T10:48:17.893Z,8.20
2019-03-02T10:50:47.098Z,8.30
2019-03-02T10:53:16.868Z,8.20
2019-03-02T10:55:48.241Z,8.30
2019-03-02T10:58:18.198Z,8.20
2019-03-02T11:00:47.313Z,8.20
2019-03-02T11:03:16.495Z,8.30
2019-03-02T11:05:58.373Z,8.30
2019-03-02T11:08:44.877Z,8.40
2019-03-02T11:11:45.344Z,8.50
2019-03-02T11:14:27.766Z,8.40
2019-03-02T11:17:25.343Z,8.40
2019-03-02T11:20:25.573Z,8.30
2019-03-02T11:23:10.509Z,8.40
2019-03-02T11:25:53.660Z,8.30
2019-03-02T11:28:34.809Z,8.30
2019-03-02T11:31:38.025Z,8.20
2019-03-02T11:34:20.114Z,8.20
2019-03-02T11:37:14.056Z,8.10
2019-03-02T11:40:20.822Z,8.00
2019-03-02T11:42:59.881Z,7.90
2019-03-02T11:45:47.050Z,7.90
2019-03-02T11:48:28.977Z,8.00
2019-03-02T11:51:13.013Z,8.10
2019-03-02T11:54:04.134Z,8.20
2019-03-02T11:56:43.003Z,8.20
2019-03-02T11:59:29.677Z,8.30
2019-03-02T12:02:24.780Z,8.30
2019-03-02T12:05:11.930Z,8.30
2019-03-02T12:08:03.071Z,8.30
2019-03-02T12:10:54.289Z,8.30
2019-03-02T12:13:42.431Z,8.40
2019-03-02T12:16:30.548Z,8.50
2019-03-02T12:19:08.984Z,8.50
2019-03-02T12:21:57.767Z,8.50
2019-03-02T12:24:39.900Z,8.50
2019-03-02T12:27:22.372Z,8.60
2019-03-02T12:29:59.753Z,8.60
2019-03-02T12:32:46.739Z,8.60
2019-03-02T12:35:47.033Z,8.70
2019-03-02T12:38:33.504Z,8.70
2019-03-02T12:41:07.866Z,8.60
2019-03-02T12:43:47.082Z,8.60
2019-03-02T12:46:59.022Z,8.60
2019-03-02T12:49:58.899Z,8.60
2019-03-02T12:52:52.799Z,8.70
2019-03-02T12:55:38.519Z,8.60
2019-03-02T12:58:12.544Z,8.60
2019-03-02T13:00:59.275Z,8.60
2019-03-02T13:03:47.568Z,8.50
2019-03-02T13:06:36.205Z,8.60
2019-03-02T13:09:27.990Z,8.60
2019-03-02T13:12:15.258Z,8.70
2019-03-02T13:14:57.678Z,8.70
2019-03-02T13:17:48.965Z,8.60
2019-03-02T13:20:24.584Z,8.60
2019-03-02T13:23:16.124Z,8.70
2019-03-02T13:26:06.972Z,8.80
2019-03-02T13:28:57.561Z,8.70
2019-03-02T13:31:52.469Z,8.80
2019-03-02T13:34:39.623Z,8.80
2019-03-02T13:37:20.332Z,8.80
2019-03-02T13:39:59.719Z,8.80
2019-03-02T13:42:51.003Z,8.90
2019-03-02T13:45:37.454Z,8.90
2019-03-02T13:48:26.699Z,9.00
2019-03-02T13:51:26.021Z,9.00
2019-03-02T13:54:12.825Z,9.00
2019-03-02T13:57:04.801Z,9.10
2019-03-02T14:00:03.386Z,9.20
2019-03-02T14:02:46.952Z,9.40
2019-03-02T14:05:34.056Z,9.70
2019-03-02T14:08:25.241Z,10.20
2019-03-02T14:11:04.964Z,10.50
2019-03-02T14:14:09.360Z,11.10
2019-03-02T14:16:56.561Z,11.70
2019-03-02T14:19:48.514Z,12.20
2019-03-02T14:22:52.748Z,12.50
2019-03-02T14:25:40.965Z,12.30
2019-03-02T14:28:41.570Z,12.20
2019-03-02T14:31:20.379Z,11.90
2019-03-02T14:34:02.986Z,11.70
2019-03-02T14:36:52.355Z,12.00
2019-03-02T14:39:43.369Z,12.40
2019-03-02T14:42:31.499Z,12.90
2019-03-02T14:45:09.725Z,13.10
2019-03-02T14:47:57.816Z,13.60
2019-03-02T14:50:45.202Z,13.80
2019-03-02T14:53:41.929Z,13.40
2019-03-02T14:56:44.817Z,13.20
2019-03-02T14:59:27.779Z,12.70
2019-03-02T15:02:25.163Z,11.80
2019-03-02T15:05:16.143Z,11.40
2019-03-02T15:08:00.548Z,11.30
2019-03-02T15:10:47.663Z,11.60
2019-03-02T15:13:42.336Z,11.90
2019-03-02T15:16:26.983Z,12.50
2019-03-02T15:19:33.298Z,13.20
2019-03-02T15:22:30.404Z,13.40
2019-03-02T15:25:17.288Z,13.20
2019-03-02T15:28:11.227Z,13.40
2019-03-02T15:30:59.274Z,13.40
2019-03-02T15:33:46.810Z,13.00
2019-03-02T15:36:29.453Z,12.50
2019-03-02T15:39:26.924Z,12.30
2019-03-02T15:42:13.924Z,11.90
2019-03-02T15:45:02.133Z,11.70
2019-03-02T15:47:56.449Z,11.50
2019-03-02T15:50:31.717Z,11.30
2019-03-02T15:53:16.158Z,11.20
2019-03-02T15:56:01.493Z,11.30
2019-03-02T15:58:46.636Z,11.20
2019-03-02T16:01:33.403Z,11.20
2019-03-02T16:04:25.659Z,11.00
2019-03-02T16:07:16.305Z,10.90
2019-03-02T16:10:14.760Z,10.90
2019-03-02T16:13:07.502Z,11.00
2019-03-02T16:15:55.152Z,11.10
2019-03-02T16:18:49.177Z,11.00
2019-03-02T16:21:36.237Z,11.00
2019-03-02T16:24:27.509Z,10.90
2019-03-02T16:27:14.593Z,10.80
2019-03-02T16:30:05.520Z,10.60
2019-03-02T16:32:55.349Z,10.50
2019-03-02T16:35:41.302Z,10.50
2019-03-02T16:38:42.317Z,10.50
2019-03-02T16:41:46.019Z,10.30
2019-03-02T16:44:21.718Z,10.30
2019-03-02T16:47:21.916Z,10.30
2019-03-02T16:50:16.566Z,10.20
2019-03-02T16:52:51.672Z,10.20
2019-03-02T16:55:42.067Z,10.10
2019-03-02T16:58:24.395Z,10.00
2019-03-02T17:01:14.449Z,9.80
2019-03-02T17:03:56.584Z,9.80
2019-03-02T17:06:42.693Z,9.70
2019-03-02T17:09:33.799Z,9.80
2019-03-02T17:12:17.192Z,9.70
2019-03-02T17:15:08.935Z,9.80
2019-03-02T17:17:50.628Z,9.80
2019-03-02T17:20:48.374Z,9.80
2019-03-02T17:23:42.583Z,9.80
2019-03-02T17:26:28.509Z,9.90
2019-03-02T17:29:12.067Z,9.90
2019-03-02T17:32:06.209Z,9.80
2019-03-02T17:34:54.350Z,9.80
2019-03-02T17:37:45.335Z,9.80
2019-03-02T17:40:43.161Z,9.80
2019-03-02T17:43:30.079Z,9.80
2019-03-02T17:46:17.303Z,9.80
2019-03-02T17:49:09.166Z,9.70
2019-03-02T17:51:57.523Z,9.70
2019-03-02T17:54:54.051Z,9.70
2019-03-02T17:57:50.283Z,9.60
2019-03-02T18:00:37.716Z,9.60
2019-03-02T18:03:34.754Z,9.50
2019-03-02T18:06:25.078Z,9.50
2019-03-02T18:09:04.500Z,9.40
2019-03-02T18:11:52.816Z,9.40
2019-03-02T18:14:59.140Z,9.40
2019-03-02T18:17:36.654Z,9.40
2019-03-02T18:20:06.735Z,9.40
2019-03-02T18:22:36.124Z,9.40
2019-03-02T18:25:07.824Z,9.30
2019-03-02T18:27:38.698Z,9.30
2019-03-02T18:30:10.916Z,9.20
2019-03-02T18:32:40.013Z,9.20
2019-03-02T18:35:10.271Z,9.10
2019-03-02T18:37:39.345Z,9.10
2019-03-02T18:40:10.176Z,9.00
2019-03-02T18:42:39.278Z,9.00
2019-03-02T18:45:09.551Z,9.00
2019-03-02T18:47:38.780Z,8.90
2019-03-02T18:50:32.449Z,8.90
2019-03-02T18:53:07.252Z,8.90
2019-03-02T18:55:36.322Z,8.90
2019-03-02T18:58:07.304Z,8.90
2019-03-02T19:00:39.214Z,8.90
2019-03-02T19:03:08.919Z,8.80
2019-03-02T19:05:38.251Z,8.80
2019-03-02T19:08:07.360Z,8.70
2019-03-02T19:10:39.742Z,8.60
2019-03-02T19:13:08.455Z,8.60
2019-03-02T19:15:38.167Z,8.50
2019-03-02T19:18:07.256Z,8.40
2019-03-02T19:20:36.387Z,8.40
2019-03-02T19:23:05.512Z,8.40
2019-03-02T19:25:34.580Z,8.30
2019-03-02T19:28:03.663Z,8.30
2019-03-02T19:30:32.904Z,8.20
2019-03-02T19:33:02.113Z,8.20
2019-03-02T19:35:31.216Z,8.20
2019-03-02T19:38:00.320Z,8.20
2019-03-02T19:40:29.670Z,8.20
2019-03-02T19:42:59.147Z,8.20
2019-03-02T19:45:28.353Z,8.20
2019-03-02T19:47:57.539Z,8.20
2019-03-02T19:50:26.845Z,8.20
2019-03-02T19:52:56.132Z,8.30
2019-03-02T19:55:25.705Z,8.30
2019-03-02T19:57:55.055Z,8.30
2019-03-02T20:00:26.444Z,8.30
2019-03-02T20:03:14.824Z,8.30
2019-03-02T20:05:45.538Z,8.30
2019-03-02T20:08:14.985Z,8.30
2019-03-02T20:10:44.374Z,8.30
2019-03-02T20:13:13.625Z,8.30
2019-03-02T20:15:43.494Z,8.30
2019-03-02T20:18:12.905Z,8.30
2019-03-02T20:20:42.303Z,8.40
2019-03-02T20:23:11.720Z,8.40
2019-03-02T20:25:41.146Z,8.40
2019-03-02T20:28:10.505Z,8.40
2019-03-02T20:30:39.853Z,8.40
2019-03-02T20:33:09.534Z,8.40
2019-03-02T20:35:38.979Z,8.40
2019-03-02T20:38:08.241Z,8.40
2019-03-02T20:40:37.767Z,8.40
2019-03-02T20:43:07.149Z,8.40
2019-03-02T20:45:36.635Z,8.50
2019-03-02T20:48:06.155Z,8.50
2019-03-02T20:50:35.655Z,8.50
2019-03-02T20:53:05.245Z,8.50
2019-03-02T20:55:34.702Z,8.50
2019-03-02T20:58:04.005Z,8.60
2019-03-02T21:00:34.516Z,8.60
2019-03-02T21:03:04.059Z,8.60
2019-03-02T21:05:33.653Z,8.60
2019-03-02T21:08:04.509Z,8.70
2019-03-02T21:10:34.037Z,8.70
2019-03-02T21:13:07.500Z,8.70
2019-03-02T21:15:37.273Z,8.80
2019-03-02T21:18:06.828Z,8.80
2019-03-02T21:20:39.007Z,8.80
2019-03-02T21:23:11.279Z,8.80
2019-03-02T21:25:40.816Z,8.80
2019-03-02T21:28:10.537Z,8.90
2019-03-02T21:30:40.069Z,8.90
2019-03-02T21:33:09.672Z,8.90
2019-03-02T21:35:39.289Z,8.90
2019-03-02T21:38:08.501Z,9.00
2019-03-02T21:40:37.651Z,9.00
2019-03-02T21:43:06.747Z,9.00
2019-03-02T21:45:36.045Z,9.00
2019-03-02T21:48:05.326Z,9.00
2019-03-02T21:50:34.582Z,9.00
2019-03-02T21:53:03.793Z,9.10
2019-03-02T21:55:32.977Z,9.10
2019-03-02T21:58:02.235Z,9.10
2019-03-02T22:00:31.675Z,9.20
2019-03-02T22:03:00.916Z,9.20
2019-03-02T22:05:30.179Z,9.20
2019-03-02T22:07:59.301Z,9.20
2019-03-02T22:10:36.747Z,9.20
2019-03-02T22:13:05.980Z,9.30
2019-03-02T22:15:36.256Z,9.30
2019-03-02T22:18:05.389Z,9.40
2019-03-02T22:20:34.491Z,9.40
2019-03-02T22:23:03.665Z,9.40
2019-03-02T22:25:32.867Z,9.30
2019-03-02T22:28:01.962Z,9.30
2019-03-02T22:30:31.160Z,9.30
2019-03-02T22:33:00.123Z,9.30
2019-03-02T22:35:29.360Z,9.30
2019-03-02T22:37:58.604Z,9.30
2019-03-02T22:40:27.722Z,9.40
2019-03-02T22:42:56.931Z,9.40
2019-03-02T22:45:26.003Z,9.40
2019-03-02T22:48:27.579Z,9.40
2019-03-02T22:50:56.741Z,9.40
2019-03-02T22:53:25.805Z,9.40
2019-03-02T22:55:55.014Z,9.40
2019-03-02T22:58:31.003Z,9.50
2019-03-02T23:01:39.844Z,9.50
2019-03-02T23:04:08.996Z,9.40
2019-03-02T23:06:38.115Z,9.40
2019-03-02T23:09:10.460Z,9.40
2019-03-02T23:11:39.629Z,9.40
2019-03-02T23:14:08.697Z,9.40
2019-03-02T23:16:37.783Z,9.50
2019-03-02T23:19:06.883Z,9.50
2019-03-02T23:21:35.968Z,9.60
2019-03-02T23:24:05.028Z,9.50
2019-03-02T23:26:34.133Z,9.50
2019-03-02T23:29:03.313Z,9.50
2019-03-02T23:31:32.437Z,9.60
2019-03-02T23:34:01.527Z,9.60
2019-03-02T23:36:30.619Z,9.50
2019-03-02T23:38:59.683Z,9.50
2019-03-02T23:41:28.802Z,9.60
2019-03-02T23:43:57.943Z,9.60
2019-03-02T23:46:26.991Z,9.60
2019-03-02T23:48:56.125Z,9.60
2019-03-02T23:51:25.215Z,9.60
2019-03-02T23:53:54.296Z,9.60
2019-03-02T23:56:23.374Z,9.60
2019-03-02T23:58:52.486Z,9.50
